Time;durP1;ratioP1;P1;durP2;ratioP2;P2;SDS_P1;SDS_P2;PMS_P1;PMS_P2;Temp;Humidity;BMP_temperature;BMP_pressure;BME280_temperature;BME280_humidity;BME280_pressure;Samples;Min_cycle;Max_cycle;Signal;HPM_P1;HPM_P2
2022/11/20 00:01:13;;;;;;;11.45;8.63;;;;;;;18.98;41.47;101423.03;5086878;28;20597;-73
2022/11/20 00:03:39;;;;;;;13.77;8.95;;;;;;;18.98;41.47;101420.41;5090056;28;20414;-73
2022/11/20 00:06:08;;;;;;;11.13;7.88;;;;;;;18.98;41.45;101423.03;5101843;27;20177;-73
2022/11/20 00:08:34;;;;;;;13.10;8.77;;;;;;;18.96;41.58;101419.75;5091814;28;20036;-73
2022/11/20 00:11:11;;;;;;;11.65;7.80;;;;;;;18.95;41.65;101414.63;5088519;28;20035;-74
2022/11/20 00:13:37;;;;;;;13.30;8.98;;;;;;;19.04;41.31;101420.78;5087464;28;20043;-73
2022/11/20 00:16:04;;;;;;;12.48;8.77;;;;;;;19.15;41.14;101423.09;5086284;28;20039;-74
2022/11/20 00:18:30;;;;;;;12.95;8.68;;;;;;;19.12;40.97;101421.59;5088858;28;20039;-74
2022/11/20 00:21:28;;;;;;;12.82;8.35;;;;;;;19.15;41.04;101425.75;5088150;28;20479;-74
2022/11/20 00:23:55;;;;;;;13.73;8.73;;;;;;;19.17;40.93;101427.22;5065829;28;20374;-74
2022/11/20 00:26:22;;;;;;;13.60;9.20;;;;;;;19.16;41.13;101427.38;5086756;28;20040;-74
2022/11/20 00:28:53;;;;;;;11.75;8.20;;;;;;;19.19;40.96;101419.13;5091421;28;20027;-74
2022/11/20 00:31:19;;;;;;;11.80;8.35;;;;;;;19.21;40.88;101422.44;5084003;28;20951;-74
2022/11/20 00:33:45;;;;;;;10.55;7.70;;;;;;;19.20;41.03;101408.41;5088609;28;20164;-74
2022/11/20 00:36:16;;;;;;;11.95;8.05;;;;;;;19.18;41.04;101407.75;5087870;28;20039;-74
2022/11/20 00:38:43;;;;;;;10.15;8.05;;;;;;;19.15;41.02;101410.72;5084956;28;20378;-74
2022/11/20 00:41:11;;;;;;;11.38;8.32;;;;;;;19.18;41.02;101414.84;5082513;28;20044;-74
2022/11/20 00:43:36;;;;;;;11.25;8.23;;;;;;;19.18;40.85;101409.56;5089791;28;20083;-74
2022/11/20 00:46:08;;;;;;;11.35;8.15;;;;;;;19.14;41.20;101414.34;5087049;28;20489;-74
2022/11/20 00:48:33;;;;;;;10.60;7.40;;;;;;;19.16;41.15;101416.81;5088663;28;20036;-74
2022/11/20 00:50:59;;;;;;;10.50;7.60;;;;;;;19.20;41.02;101411.06;5089621;28;20493;-74
2022/11/20 00:53:25;;;;;;;11.43;7.68;;;;;;;19.14;41.00;101417.00;5086831;28;21094;-74
2022/11/20 00:56:01;;;;;;;11.05;7.85;;;;;;;19.13;41.23;101411.88;5084204;28;20048;-74
2022/11/20 00:58:32;;;;;;;9.80;7.57;;;;;;;19.11;41.31;101406.75;5087039;28;20035;-74
2022/11/20 01:01:21;;;;;;;12.50;7.78;;;;;;;19.17;41.29;101405.28;5093768;28;20903;-74
2022/11/20 01:03:49;;;;;;;10.65;7.03;;;;;;;19.12;41.32;101399.66;5090327;28;20085;-74
2022/11/20 01:06:21;;;;;;;11.77;7.75;;;;;;;19.15;41.26;101402.81;5087902;28;20035;-74
2022/11/20 01:08:48;;;;;;;10.18;7.40;;;;;;;19.10;41.45;101396.38;5092123;28;20024;-74
2022/11/20 01:11:16;;;;;;;11.52;7.78;;;;;;;19.15;41.32;101405.44;5091566;28;20039;-75
2022/11/20 01:13:42;;;;;;;9.25;6.50;;;;;;;19.14;41.33;101410.88;5093195;28;20088;-75
2022/11/20 01:16:10;;;;;;;11.90;7.50;;;;;;;19.16;41.28;101412.38;5091012;28;20048;-74
2022/11/20 01:18:39;;;;;;;11.05;7.55;;;;;;;19.12;41.41;101397.84;5087554;28;20119;-74
2022/11/20 01:21:08;;;;;;;10.38;6.97;;;;;;;19.09;41.36;101392.91;5090713;28;20143;-74
2022/11/20 01:23:35;;;;;;;11.95;7.20;;;;;;;19.10;41.34;101378.72;5089503;28;20044;-74
2022/11/20 01:26:03;;;;;;;10.20;6.93;;;;;;;19.15;41.26;101383.50;5092197;28;20048;-74
2022/11/20 01:28:29;;;;;;;11.85;7.47;;;;;;;19.07;41.13;101386.13;5093385;28;20039;-73
2022/11/20 01:30:55;;;;;;;8.02;6.38;;;;;;;19.14;41.27;101379.22;5089156;28;20125;-73
2022/11/20 01:33:20;;;;;;;10.30;7.47;;;;;;;19.08;41.44;101382.50;5091159;28;20051;-74
2022/11/20 01:35:46;;;;;;;8.82;6.60;;;;;;;19.10;41.37;101375.25;5092202;28;20036;-74
2022/11/20 01:38:11;;;;;;;9.90;6.22;;;;;;;19.08;41.66;101378.06;5095023;27;20628;-74
2022/11/20 01:40:37;;;;;;;10.10;6.55;;;;;;;19.06;41.40;101374.75;5090393;28;20043;-74
2022/11/20 01:43:21;;;;;;;9.52;6.57;;;;;;;19.07;41.29;101380.84;5091019;28;20106;-74
2022/11/20 01:45:56;;;;;;;10.02;6.75;;;;;;;19.10;41.21;101373.44;5092739;28;20107;-74
2022/11/20 01:48:23;;;;;;;10.27;6.65;;;;;;;19.05;41.32;101369.63;5091452;28;20515;-74
2022/11/20 01:50:51;;;;;;;10.38;6.63;;;;;;;18.99;41.43;101366.63;5099035;27;20027;-74
2022/11/20 01:53:21;;;;;;;9.60;6.68;;;;;;;18.96;41.36;101359.03;5097254;28;20455;-74
2022/11/20 01:55:48;;;;;;;;;;;;;;;18.99;41.43;101366.63;5092857;28;20043;-74
2022/11/20 01:58:15;;;;;;;8.50;6.72;;;;;;;19.01;41.31;101363.81;5093083;28;19984;-74
2022/11/20 02:00:41;;;;;;;10.90;7.40;;;;;;;19.05;41.28;101359.06;5088613;28;20031;-74
2022/11/20 02:03:11;;;;;;;9.88;6.63;;;;;;;18.99;41.40;101361.34;5091005;28;20136;-74
2022/11/20 02:06:14;;;;;;;8.00;6.05;;;;;;;18.98;41.50;101362.34;5088487;28;20031;-74
2022/11/20 02:08:39;;;;;;;11.15;6.57;;;;;;;19.00;41.51;101356.91;5088260;28;20054;-74
2022/11/20 02:11:05;;;;;;;8.40;6.28;;;;;;;18.94;41.45;101347.81;5088457;28;20040;-74
2022/11/20 02:13:43;;;;;;;11.63;7.10;;;;;;;18.96;41.51;101350.28;5089606;28;20167;-74
2022/11/20 02:16:12;;;;;;;9.38;6.70;;;;;;;18.93;41.63;101345.34;5075659;28;20122;-74
2022/11/20 02:18:39;;;;;;;8.50;5.75;;;;;;;18.97;41.41;101338.75;5089967;28;20074;-74
2022/11/20 02:21:32;;;;;;;8.15;6.00;;;;;;;18.98;41.42;101335.13;5087272;28;20039;-74
2022/11/20 02:24:02;;;;;;;9.55;5.75;;;;;;;18.95;41.37;101332.81;5091268;28;20088;-74
2022/11/20 02:26:30;;;;;;;8.13;5.82;;;;;;;18.91;41.27;101327.03;5081271;28;20386;-74
2022/11/20 02:28:56;;;;;;;8.05;5.80;;;;;;;18.88;41.30;101311.53;5087879;28;20763;-74
2022/11/20 02:31:22;;;;;;;9.30;6.00;;;;;;;18.99;41.28;101327.03;5093276;28;20044;-74
2022/11/20 02:33:47;;;;;;;9.90;6.68;;;;;;;18.89;41.58;101325.53;5095410;28;20484;-74
2022/11/20 02:36:16;;;;;;;7.65;6.15;;;;;;;18.91;41.33;101326.22;5092939;28;20039;-75
2022/11/20 02:38:43;;;;;;;8.25;6.22;;;;;;;18.91;41.33;101321.75;5085724;28;20048;-74
2022/11/20 02:41:09;;;;;;;7.47;5.43;;;;;;;18.98;41.24;101330.66;5089976;28;20635;-74
2022/11/20 02:43:34;;;;;;;9.02;5.60;;;;;;;18.94;41.23;101334.63;5085957;28;20037;-74
2022/11/20 02:46:00;;;;;;;8.75;5.85;;;;;;;18.88;41.33;101322.09;5089674;28;20131;-74
2022/11/20 02:48:25;;;;;;;7.88;5.43;;;;;;;18.91;41.17;101324.41;5086687;28;20067;-74
2022/11/20 02:50:51;;;;;;;8.63;5.68;;;;;;;18.92;41.05;101325.22;5084548;28;20035;-74
2022/11/20 02:53:16;;;;;;;7.55;5.25;;;;;;;19.11;40.93;101330.19;5079613;28;20506;-74
2022/11/20 02:55:42;;;;;;;9.05;5.40;;;;;;;19.08;40.90;101324.44;5089233;28;20036;-75
2022/11/20 02:58:07;;;;;;;7.57;5.40;;;;;;;19.12;40.89;101317.81;5088954;28;20047;-74
2022/11/20 03:00:33;;;;;;;7.18;5.20;;;;;;;19.16;40.84;101324.44;5069360;28;20076;-74
2022/11/20 03:02:59;;;;;;;8.27;5.35;;;;;;;19.15;40.80;101305.13;5086449;28;20039;-74
2022/11/20 03:05:24;;;;;;;6.63;5.10;;;;;;;19.07;40.74;101310.41;5073098;28;20032;-74
2022/11/20 03:07:49;;;;;;;8.05;5.32;;;;;;;19.13;40.91;101320.31;5085868;28;20036;-74
2022/11/20 03:10:15;;;;;;;7.38;5.57;;;;;;;19.09;40.80;101313.72;5086344;28;20481;-74
2022/11/20 03:12:41;;;;;;;8.27;5.82;;;;;;;19.14;40.77;101313.22;5088503;28;20046;-74
2022/11/20 03:15:06;;;;;;;8.15;5.32;;;;;;;19.16;40.66;101301.50;5087182;28;21271;-74
2022/11/20 03:17:32;;;;;;;7.22;4.88;;;;;;;19.14;40.80;101316.66;5086542;28;20046;-74
2022/11/20 03:19:57;;;;;;;7.22;5.03;;;;;;;19.13;40.86;101308.91;5088399;28;20512;-74
2022/11/20 03:22:23;;;;;;;9.32;5.43;;;;;;;19.11;40.95;101309.09;5088287;28;20056;-74
2022/11/20 03:24:48;;;;;;;7.47;5.20;;;;;;;19.08;40.96;101308.59;5086906;28;20070;-74
2022/11/20 03:27:14;;;;;;;7.00;5.38;;;;;;;19.08;40.91;101305.94;5087889;28;20027;-74
2022/11/20 03:29:39;;;;;;;7.57;5.20;;;;;;;19.06;41.02;101298.19;5088142;28;20047;-74
2022/11/20 03:32:05;;;;;;;6.15;4.68;;;;;;;19.08;40.97;101304.13;5086856;28;20054;-74
2022/11/20 03:34:30;;;;;;;8.65;5.10;;;;;;;19.03;41.08;101303.81;5087095;28;20509;-74
2022/11/20 03:36:56;;;;;;;7.32;4.97;;;;;;;19.03;41.08;101293.25;5084656;28;20043;-74
2022/11/20 03:39:21;;;;;;;7.97;4.95;;;;;;;19.09;40.99;101292.59;5089142;28;20931;-74
2022/11/20 03:41:47;;;;;;;6.43;4.55;;;;;;;19.08;41.06;101288.31;5087978;28;20044;-74
2022/11/20 03:44:12;;;;;;;6.60;5.25;;;;;;;19.06;41.07;101274.44;5089909;28;20432;-74
2022/11/20 03:46:41;;;;;;;7.60;4.50;;;;;;;19.03;41.23;101264.22;5086694;28;20094;-74
2022/11/20 03:49:06;;;;;;;6.85;4.97;;;;;;;19.04;40.99;101263.22;5082831;28;20041;-75
2022/11/20 03:51:35;;;;;;;6.82;4.78;;;;;;;19.04;41.10;101259.75;5089301;28;20817;-74
2022/11/20 03:54:03;;;;;;;6.18;4.75;;;;;;;19.02;41.19;101247.53;5086237;28;20036;-74
2022/11/20 03:56:32;;;;;;;5.90;4.63;;;;;;;19.04;41.14;101252.66;5090699;28;20977;-74
2022/11/20 03:58:58;;;;;;;6.43;4.70;;;;;;;19.05;41.15;101249.03;5085006;28;20044;-74
2022/11/20 04:01:29;;;;;;;6.10;4.65;;;;;;;19.05;41.15;101248.22;5086823;28;20122;-74
2022/11/20 04:03:56;;;;;;;6.00;4.30;;;;;;;18.99;41.06;101242.56;5086179;28;20039;-74
2022/11/20 04:06:24;;;;;;;6.45;4.78;;;;;;;19.00;41.08;101246.03;5086122;28;20036;-74
2022/11/20 04:08:50;;;;;;;6.22;4.45;;;;;;;19.04;41.12;101255.31;5083639;28;20066;-74
2022/11/20 04:11:18;;;;;;;6.93;4.57;;;;;;;19.04;41.23;101250.03;5087402;28;20158;-74
2022/11/20 04:13:54;;;;;;;6.63;4.78;;;;;;;18.94;41.43;101247.53;5086630;28;20834;-74
2022/11/20 04:16:20;;;;;;;7.40;4.30;;;;;;;19.00;41.26;101243.41;5088718;28;20044;-74
2022/11/20 04:18:46;;;;;;;6.25;4.63;;;;;;;19.02;41.01;101236.97;5083515;28;20556;-74
2022/11/20 04:21:11;;;;;;;5.63;4.35;;;;;;;19.01;41.33;101243.22;5084122;28;20052;-74
2022/11/20 04:23:37;;;;;;;6.53;4.68;;;;;;;18.94;41.39;101244.91;5085595;28;20052;-74
2022/11/20 04:26:11;;;;;;;6.18;4.50;;;;;;;18.99;41.32;101247.03;5086358;28;20035;-74
2022/11/20 04:28:40;;;;;;;5.63;4.30;;;;;;;18.90;41.17;101234.84;5086396;28;20040;-74
2022/11/20 04:31:11;;;;;;;6.43;4.03;;;;;;;18.88;41.23;101232.38;5083854;28;20200;-74
2022/11/20 04:33:38;;;;;;;6.07;4.63;;;;;;;18.96;41.37;101235.00;5088459;28;20792;-73
2022/11/20 04:36:14;;;;;;;5.38;4.38;;;;;;;18.93;41.37;101245.88;5090596;28;20406;-74
2022/11/20 04:38:40;;;;;;;6.45;4.80;;;;;;;18.98;41.33;101232.19;5105000;27;20525;-74
2022/11/20 04:41:09;;;;;;;6.47;4.50;;;;;;;19.02;41.26;101222.94;5093215;28;20643;-74
2022/11/20 04:43:35;;;;;;;6.13;4.45;;;;;;;18.94;41.40;101223.78;5089252;28;20646;-74
2022/11/20 04:46:01;;;;;;;6.15;4.10;;;;;;;18.95;41.23;101227.25;5088040;28;20051;-75
2022/11/20 04:48:27;;;;;;;5.95;4.65;;;;;;;18.91;41.30;101221.47;5086779;28;20035;-74
2022/11/20 04:50:53;;;;;;;5.55;4.22;;;;;;;18.94;41.32;101229.06;5102721;27;20387;-74
2022/11/20 04:53:20;;;;;;;4.60;3.60;;;;;;;18.95;41.30;101227.25;5092994;28;20059;-74
2022/11/20 04:55:46;;;;;;;5.70;3.80;;;;;;;19.00;41.27;101224.94;5087545;28;20042;-75
2022/11/20 04:58:12;;;;;;;6.18;3.90;;;;;;;18.97;41.25;101227.91;5089584;28;20031;-74
2022/11/20 05:00:37;;;;;;;5.18;3.75;;;;;;;18.93;41.22;101224.78;5085867;28;20485;-74
2022/11/20 05:03:03;;;;;;;6.10;4.03;;;;;;;18.80;41.51;101211.22;5095871;28;20394;-74
2022/11/20 05:05:28;;;;;;;5.88;3.97;;;;;;;18.93;41.24;101223.94;5090246;28;20086;-74
2022/11/20 05:07:58;;;;;;;5.20;4.10;;;;;;;18.83;41.58;101224.09;5085351;28;20028;-74
2022/11/20 05:10:26;;;;;;;5.88;4.13;;;;;;;18.83;41.43;101210.06;5099158;28;20446;-74
2022/11/20 05:12:51;;;;;;;5.38;4.20;;;;;;;18.89;41.47;101215.53;5091604;28;20039;-74
2022/11/20 05:15:17;;;;;;;8.93;3.97;;;;;;;18.92;41.33;101217.03;5090190;28;20035;-74
2022/11/20 05:17:49;;;;;;;6.25;4.28;;;;;;;18.95;41.33;101209.59;5088839;28;20039;-75
2022/11/20 05:20:15;;;;;;;5.72;3.90;;;;;;;18.86;41.57;101210.59;5096080;28;20060;-75
2022/11/20 05:22:40;;;;;;;5.22;3.60;;;;;;;18.88;41.50;101198.06;5077283;28;20108;-74
2022/11/20 05:25:06;;;;;;;5.78;3.85;;;;;;;18.88;41.36;101191.97;5093186;28;20047;-74
2022/11/20 05:27:32;;;;;;;5.70;3.95;;;;;;;18.87;41.28;101190.31;5094038;28;20060;-74
2022/11/20 05:29:57;;;;;;;6.47;4.22;;;;;;;18.93;41.31;101198.38;5094192;28;20056;-74
2022/11/20 05:32:25;;;;;;;5.93;3.70;;;;;;;18.95;41.14;101196.41;5092497;28;20100;-74
2022/11/20 05:34:51;;;;;;;6.20;3.92;;;;;;;19.19;40.75;101202.66;5091781;28;20441;-74
2022/11/20 05:37:17;;;;;;;4.75;3.90;;;;;;;19.27;40.42;101197.38;5088489;28;20596;-73
2022/11/20 05:39:42;;;;;;;5.50;3.42;;;;;;;19.31;40.50;101194.22;5095477;28;20030;-74
2022/11/20 05:44:52;;;;;;;5.40;4.00;;;;;;;19.29;40.43;101190.94;5088123;28;20039;-74
2022/11/20 05:47:18;;;;;;;5.10;3.60;;;;;;;19.27;40.44;101187.63;5089841;28;20051;-75
2022/11/20 05:49:43;;;;;;;4.95;3.83;;;;;;;19.29;40.70;101185.66;5091586;28;20689;-74
2022/11/20 05:52:09;;;;;;;5.45;4.13;;;;;;;19.26;40.55;101180.72;5089420;28;20043;-74
2022/11/20 05:54:34;;;;;;;5.60;3.90;;;;;;;19.23;40.70;101180.22;5092646;28;20024;-74
2022/11/20 05:56:59;;;;;;;5.70;3.85;;;;;;;19.23;40.71;101172.31;5094912;28;20044;-74
2022/11/20 05:59:25;;;;;;;6.07;3.50;;;;;;;19.27;40.91;101173.63;5087751;28;20118;-74
2022/11/20 06:01:50;;;;;;;5.22;3.50;;;;;;;19.19;40.96;101168.34;5092597;28;20055;-74
2022/11/20 06:04:16;;;;;;;4.47;3.30;;;;;;;19.21;41.00;101172.47;5093550;28;20039;-74
2022/11/20 06:06:41;;;;;;;4.82;3.60;;;;;;;19.24;40.96;101168.69;5092991;28;20580;-74
2022/11/20 06:09:07;;;;;;;4.28;3.35;;;;;;;19.23;41.09;101169.66;5090107;28;20048;-74
2022/11/20 06:11:33;;;;;;;5.25;3.63;;;;;;;19.18;41.13;101156.94;5089871;28;20051;-74
2022/11/20 06:13:58;;;;;;;4.25;3.05;;;;;;;19.19;41.16;101168.34;5078830;28;20031;-74
2022/11/20 06:16:24;;;;;;;4.65;3.65;;;;;;;19.17;41.13;101157.13;5092540;28;20051;-74
2022/11/20 06:18:49;;;;;;;4.20;3.30;;;;;;;19.23;41.11;101154.66;5089115;28;20043;-74
2022/11/20 06:21:18;;;;;;;5.40;3.78;;;;;;;19.22;41.06;101165.38;5089292;28;20434;-74
2022/11/20 06:23:44;;;;;;;4.47;3.15;;;;;;;19.19;41.25;101157.78;5093060;28;20525;-74
2022/11/20 06:26:12;;;;;;;4.18;3.20;;;;;;;19.17;41.26;101171.13;5087470;28;20085;-74
2022/11/20 06:28:37;;;;;;;4.50;3.20;;;;;;;19.11;41.21;101157.78;5090641;28;20560;-74
2022/11/20 06:31:04;;;;;;;4.70;3.50;;;;;;;19.17;41.50;101176.41;5087139;28;20142;-74
2022/11/20 06:33:30;;;;;;;3.95;2.97;;;;;;;19.21;41.18;101176.91;5092369;28;20031;-74
2022/11/20 06:36:00;;;;;;;5.20;3.40;;;;;;;19.14;41.27;101178.56;5087314;28;20171;-74
2022/11/20 06:38:27;;;;;;;3.92;3.15;;;;;;;19.13;41.40;101183.03;5087034;28;20038;-74
2022/11/20 06:40:53;;;;;;;4.05;3.20;;;;;;;19.15;41.27;101186.31;5093172;28;20695;-74
2022/11/20 06:43:18;;;;;;;3.65;2.88;;;;;;;19.20;41.22;101183.19;5095656;28;20051;-74
2022/11/20 06:45:44;;;;;;;4.00;3.30;;;;;;;19.15;41.41;101186.31;5088212;28;20050;-74
2022/11/20 06:48:09;;;;;;;3.90;3.20;;;;;;;19.18;41.30;101177.25;5090631;28;20035;-75
2022/11/20 06:50:38;;;;;;;4.65;3.35;;;;;;;19.19;41.28;101176.25;5093930;28;20096;-74
2022/11/20 06:53:04;;;;;;;5.18;3.65;;;;;;;19.16;41.30;101176.59;5090054;28;20047;-74
2022/11/20 06:55:31;;;;;;;4.43;3.33;;;;;;;19.13;41.31;101180.38;5090035;28;20031;-75
2022/11/20 06:57:56;;;;;;;4.88;3.33;;;;;;;19.17;41.25;101176.41;5089035;28;20040;-74
2022/11/20 07:00:22;;;;;;;4.47;3.30;;;;;;;19.17;41.17;101175.59;5087761;28;20401;-74
2022/11/20 07:02:48;;;;;;;3.60;2.95;;;;;;;19.14;41.33;101168.00;5090271;28;20891;-74
2022/11/20 07:05:13;;;;;;;4.45;3.22;;;;;;;19.14;41.34;101165.38;5097597;28;20424;-73
2022/11/20 07:07:39;;;;;;;4.22;2.80;;;;;;;19.15;41.30;101172.31;5094077;28;20385;-73
2022/11/20 07:10:05;;;;;;;5.78;3.15;;;;;;;19.12;41.40;101167.38;5088069;28;20784;-74
2022/11/20 07:12:33;;;;;;;4.15;2.85;;;;;;;19.17;41.32;101168.50;5091821;28;20393;-74
2022/11/20 07:14:59;;;;;;;4.32;3.10;;;;;;;19.10;41.57;101172.81;5086570;28;20071;-74
2022/11/20 07:17:24;;;;;;;5.25;4.32;;;;;;;19.11;41.35;101166.53;5088056;28;20044;-74
2022/11/20 07:19:50;;;;;;;3.47;3.00;;;;;;;19.15;41.43;101159.94;5075468;28;20036;-74
2022/11/20 07:22:15;;;;;;;3.70;2.95;;;;;;;19.18;41.25;101154.31;5091992;28;20525;-74
2022/11/20 07:24:41;;;;;;;5.10;3.28;;;;;;;19.14;41.38;101165.38;5091712;28;20077;-74
2022/11/20 07:27:06;;;;;;;4.70;3.30;;;;;;;19.15;41.32;101169.66;5091397;28;20036;-74
2022/11/20 07:29:32;;;;;;;4.20;3.20;;;;;;;19.17;41.52;101171.13;5086275;28;20043;-75
2022/11/20 07:31:57;;;;;;;3.20;2.60;;;;;;;19.13;41.43;101167.19;5088124;28;20039;-74
2022/11/20 07:34:23;;;;;;;4.50;3.10;;;;;;;19.13;41.46;101171.66;5090439;28;20063;-74
2022/11/20 07:36:48;;;;;;;4.30;3.22;;;;;;;19.18;41.24;101178.06;5088146;28;20046;-74
2022/11/20 07:39:14;;;;;;;4.65;3.42;;;;;;;19.12;41.33;101172.63;5084978;28;20043;-75
2022/11/20 07:41:40;;;;;;;4.30;3.00;;;;;;;19.14;41.32;101174.13;5085705;28;21624;-75
2022/11/20 07:44:05;;;;;;;3.92;3.00;;;;;;;19.18;41.25;101166.69;5090505;28;20501;-74
2022/11/20 07:46:31;;;;;;;3.30;2.95;;;;;;;19.13;41.44;101172.47;5073694;28;20062;-75
2022/11/20 07:48:57;;;;;;;5.00;3.30;;;;;;;19.16;41.38;101174.78;5103337;27;20560;-74
2022/11/20 07:51:22;;;;;;;4.32;3.25;;;;;;;19.14;41.34;101173.28;5088374;28;20580;-75
2022/11/20 07:53:51;;;;;;;4.07;2.97;;;;;;;19.15;41.52;101167.84;5088610;28;20071;-74
2022/11/20 07:56:16;;;;;;;4.82;2.90;;;;;;;19.14;41.43;101166.19;5091404;28;20468;-74
2022/11/20 07:58:42;;;;;;;4.18;3.22;;;;;;;19.13;41.46;101158.44;5088158;28;20058;-74
2022/11/20 08:01:08;;;;;;;3.50;2.80;;;;;;;19.17;41.42;101167.69;5088819;28;20097;-74
2022/11/20 08:03:34;;;;;;;3.65;2.92;;;;;;;19.14;41.49;101168.00;5091872;28;21004;-74
2022/11/20 08:06:01;;;;;;;4.40;2.90;;;;;;;19.10;41.60;101170.16;5092057;28;20933;-74
2022/11/20 08:08:27;;;;;;;4.55;2.80;;;;;;;19.16;41.46;101172.13;5088710;28;20549;-74
2022/11/20 08:14:11;;;;;;;4.13;3.10;;;;;;;19.15;41.55;101174.94;5090546;28;20039;-74
2022/11/20 08:16:22;;;;;;;3.72;3.13;;;;;;;19.15;41.31;101162.56;5092553;28;20050;-74
2022/11/20 08:18:48;;;;;;;3.80;3.03;;;;;;;19.11;41.44;101166.53;5092467;28;20036;-74
2022/11/20 08:21:13;;;;;;;3.60;2.80;;;;;;;19.18;41.29;101177.25;5087471;28;20040;-74
2022/11/20 08:23:39;;;;;;;4.25;3.10;;;;;;;19.15;41.54;101167.84;5089405;28;20044;-74
2022/11/20 08:26:04;;;;;;;3.50;2.83;;;;;;;19.04;41.56;101167.38;5088138;28;20067;-74
2022/11/20 08:28:30;;;;;;;3.83;2.80;;;;;;;19.05;41.60;101174.31;5090452;28;20051;-74
2022/11/20 08:31:00;;;;;;;3.80;2.92;;;;;;;19.11;41.51;101182.38;5087046;28;21204;-74
2022/11/20 08:33:26;;;;;;;3.92;3.00;;;;;;;19.14;41.55;101181.22;5097178;28;20161;-74
2022/11/20 08:35:51;;;;;;;3.90;3.00;;;;;;;19.11;41.48;101187.66;5086660;28;20467;-74
2022/11/20 08:38:17;;;;;;;4.15;2.90;;;;;;;19.07;41.69;101181.06;5086992;28;20043;-74
2022/11/20 08:41:23;;;;;;;3.60;2.90;;;;;;;19.10;41.51;101182.53;5087410;28;20051;-74
2022/11/20 08:43:28;;;;;;;4.78;2.97;;;;;;;19.10;41.69;101187.81;5089828;28;20052;-74
2022/11/20 08:45:56;;;;;;;4.53;3.17;;;;;;;19.07;41.47;101183.72;5092036;28;20447;-74
2022/11/20 08:48:22;;;;;;;4.30;3.03;;;;;;;19.06;41.67;101178.59;5087508;28;20047;-75
2022/11/20 08:50:47;;;;;;;3.08;2.78;;;;;;;19.06;41.67;101179.41;5086379;28;20043;-75
2022/11/20 08:53:15;;;;;;;4.43;2.97;;;;;;;19.07;41.46;101180.25;5093177;28;20934;-73
2022/11/20 08:55:41;;;;;;;3.92;3.22;;;;;;;18.96;41.81;101179.56;5086865;28;20036;-74
2022/11/20 08:58:07;;;;;;;4.40;3.10;;;;;;;19.11;41.52;101179.72;5089727;28;20048;-74
2022/11/20 09:00:33;;;;;;;4.30;2.63;;;;;;;18.95;41.68;101172.66;5091100;28;20032;-74
2022/11/20 09:03:00;;;;;;;3.97;2.78;;;;;;;19.00;41.52;101166.88;5094151;28;20035;-73
2022/11/20 09:05:27;;;;;;;4.15;2.80;;;;;;;18.99;41.49;101176.59;5086547;28;20036;-75
2022/11/20 09:07:56;;;;;;;4.70;3.22;;;;;;;18.99;41.59;101181.88;5085807;28;20035;-76
2022/11/20 09:10:21;;;;;;;5.05;2.90;;;;;;;18.99;41.66;101183.69;5095230;28;20140;-75
2022/11/20 09:12:49;;;;;;;4.07;3.13;;;;;;;18.95;41.53;101175.28;5094621;28;20032;-73
2022/11/20 09:15:14;;;;;;;3.70;2.97;;;;;;;18.99;41.44;101181.88;5089235;28;20035;-74
2022/11/20 09:17:40;;;;;;;3.95;3.00;;;;;;;18.96;41.43;101171.66;5088579;28;20448;-74
2022/11/20 09:20:05;;;;;;;4.43;3.03;;;;;;;18.95;41.68;101164.72;5086193;28;20097;-74
2022/11/20 09:22:31;;;;;;;3.63;2.75;;;;;;;18.90;41.49;101159.13;5092089;28;20492;-74
2022/11/20 09:24:56;;;;;;;4.00;3.13;;;;;;;18.93;41.36;101157.97;5075894;28;20647;-73
2022/11/20 09:27:22;;;;;;;5.45;3.20;;;;;;;18.95;41.55;101164.72;5090084;28;20039;-73
2022/11/20 09:29:47;;;;;;;3.20;2.90;;;;;;;18.93;41.42;101158.78;5093266;28;20735;-73
2022/11/20 09:32:13;;;;;;;5.35;3.50;;;;;;;18.99;41.38;101163.41;5093300;28;20028;-73
2022/11/20 09:34:38;;;;;;;4.32;2.92;;;;;;;18.97;41.36;101156.66;5090905;28;20040;-73
2022/11/20 09:37:04;;;;;;;4.00;3.25;;;;;;;18.92;41.83;101153.69;5090416;28;20074;-73
2022/11/20 09:39:29;;;;;;;4.10;2.92;;;;;;;18.94;41.46;101155.16;5096358;28;20046;-73
2022/11/20 09:42:17;;;;;;;3.90;3.00;;;;;;;18.88;41.46;101140.00;5091713;28;20089;-71
2022/11/20 09:44:56;;;;;;;3.83;2.85;;;;;;;18.93;41.32;101142.13;5096177;28;20151;-72
2022/11/20 09:47:46;;;;;;;4.27;3.17;;;;;;;18.94;41.31;101149.06;5089067;28;20123;-72
2022/11/20 09:50:22;;;;;;;3.33;2.70;;;;;;;18.92;41.40;101157.16;5093152;28;20795;-72
2022/11/20 09:53:25;;;;;;;4.07;3.00;;;;;;;18.92;41.26;101151.88;5098299;28;20069;-73
2022/11/20 09:55:51;;;;;;;3.53;2.78;;;;;;;18.88;41.46;101145.28;5096092;28;20050;-73
2022/11/20 09:58:30;;;;;;;5.40;2.80;;;;;;;18.88;41.24;101145.28;5076653;28;20048;-72
2022/11/20 10:01:03;;;;;;;4.13;3.13;;;;;;;18.87;41.31;101148.09;5092126;28;20031;-72
2022/11/20 10:03:50;;;;;;;4.50;3.03;;;;;;;18.91;41.27;101147.59;5090972;28;20357;-72
2022/11/20 10:06:20;;;;;;;3.90;3.08;;;;;;;18.90;41.41;101147.75;5090588;28;20071;-74
2022/11/20 10:08:48;;;;;;;;;;;;;;;18.88;41.27;101147.91;5092807;28;20046;-70
2022/11/20 10:11:39;;;;;;;5.32;3.20;;;;;;;18.88;41.31;101142.66;5098796;28;19969;-74
2022/11/20 10:14:07;;;;;;;;;;;;;;;18.98;41.19;101137.19;5093515;28;20031;-73
2022/11/20 10:16:51;;;;;;;4.05;3.45;;;;;;;19.01;40.80;101135.03;5087993;28;19955;-73
2022/11/20 10:19:23;;;;;;;4.72;3.40;;;;;;;19.08;40.76;101134.38;5091786;28;20047;-72
2022/11/20 10:22:13;;;;;;;4.65;3.20;;;;;;;19.09;40.79;101136.03;5092400;28;20031;-73
2022/11/20 10:25:01;;;;;;;5.50;3.47;;;;;;;19.13;40.69;101130.22;5087178;28;20116;-72
2022/11/20 10:27:54;;;;;;;4.82;3.50;;;;;;;19.14;40.63;101125.78;5090859;28;20495;-73
2022/11/20 10:30:21;;;;;;;5.45;3.38;;;;;;;19.05;40.52;101110.97;5093499;28;20050;-73
2022/11/20 10:33:00;;;;;;;4.50;3.03;;;;;;;19.13;40.60;101124.94;5092636;28;20059;-74
2022/11/20 10:35:38;;;;;;;4.43;3.10;;;;;;;19.09;40.69;101113.09;5096849;28;20416;-71
2022/11/20 10:38:14;;;;;;;4.80;3.13;;;;;;;19.06;40.63;101108.16;5093336;28;20036;-71
2022/11/20 10:40:43;;;;;;;4.63;3.10;;;;;;;19.09;40.53;101109.63;5093056;28;20036;-71
2022/11/20 10:43:17;;;;;;;5.30;3.45;;;;;;;19.06;40.53;101108.16;5094745;28;20047;-72
2022/11/20 10:46:04;;;;;;;4.90;3.50;;;;;;;19.10;40.42;101093.63;5088189;28;20031;-71
2022/11/20 10:48:32;;;;;;;4.47;3.30;;;;;;;19.02;40.46;101091.81;5092367;28;20042;-72
2022/11/20 10:51:12;;;;;;;5.72;4.32;;;;;;;19.06;40.47;101096.78;5095064;28;20493;-72
2022/11/20 10:54:02;;;;;;;4.20;3.30;;;;;;;18.98;40.19;101089.69;5095488;28;20051;-73
2022/11/20 10:56:41;;;;;;;5.13;3.20;;;;;;;19.06;40.35;101094.13;5096004;28;20513;-73
2022/11/20 10:59:32;;;;;;;4.15;2.80;;;;;;;19.02;40.41;101088.34;5087558;28;20044;-73
2022/11/20 11:01:58;;;;;;;5.68;3.10;;;;;;;19.07;40.36;101093.97;5090134;28;20127;-73
2022/11/20 11:04:32;;;;;;;4.45;3.00;;;;;;;19.00;40.43;101095.59;5091418;28;20062;-73
2022/11/20 11:07:13;;;;;;;4.68;2.90;;;;;;;18.98;40.15;101081.75;5092185;28;20100;-73
2022/11/20 11:09:44;;;;;;;4.78;3.03;;;;;;;18.93;40.32;101079.63;5094230;28;20036;-73
2022/11/20 11:12:10;;;;;;;4.00;3.10;;;;;;;18.97;40.56;101073.00;5091090;28;20505;-73
2022/11/20 11:14:51;;;;;;;4.13;3.22;;;;;;;18.99;40.65;101076.31;5090382;28;20028;-73
2022/11/20 11:17:45;;;;;;;4.43;3.13;;;;;;;19.01;40.55;101069.03;5091823;28;20027;-73
2022/11/20 11:20:11;;;;;;;4.45;3.05;;;;;;;18.97;40.54;101065.09;5097281;28;20051;-73
2022/11/20 11:22:49;;;;;;;4.53;3.05;;;;;;;19.00;40.47;101058.66;5089916;28;20123;-73
2022/11/20 11:25:28;;;;;;;4.50;3.10;;;;;;;18.93;40.81;101045.31;5095240;28;20077;-73
2022/11/20 11:27:59;;;;;;;4.00;3.17;;;;;;;18.91;40.62;101059.69;5093983;28;20071;-73
2022/11/20 11:30:26;;;;;;;4.47;3.13;;;;;;;18.94;40.52;101061.97;5088551;28;20040;-73
2022/11/20 11:33:19;;;;;;;4.30;3.30;;;;;;;18.93;40.78;101058.53;5087592;28;20038;-73
2022/11/20 11:35:47;;;;;;;4.88;3.17;;;;;;;18.97;40.58;101054.53;5086553;28;20488;-73
2022/11/20 11:38:17;;;;;;;3.88;3.15;;;;;;;19.01;40.49;101041.81;5088576;28;20043;-73